sensor_id;sensor_type;location;lat;lon;timestamp;P1;durP1;ratioP1;P2;durP2;ratioP2
78453;SDS011;67750;55.832;49.124;2023-06-04T00:00:03;7.10;;;3.75;;
78453;SDS011;67750;55.832;49.124;2023-06-04T00:02:36;7.90;;;4.10;;
78453;SDS011;67750;55.832;49.124;2023-06-04T00:05:05;5.37;;;3.65;;
78453;SDS011;67750;55.832;49.124;2023-06-04T00:07:35;8.30;;;3.50;;
78453;SDS011;67750;55.832;49.124;2023-06-04T00:10:05;7.90;;;3.72;;
78453;SDS011;67750;55.832;49.124;2023-06-04T00:12:35;5.78;;;3.60;;
78453;SDS011;67750;55.832;49.124;2023-06-04T00:15:04;5.58;;;3.62;;
78453;SDS011;67750;55.832;49.124;2023-06-04T00:17:34;7.50;;;3.67;;
78453;SDS011;67750;55.832;49.124;2023-06-04T00:20:04;6.30;;;3.52;;
78453;SDS011;67750;55.832;49.124;2023-06-04T00:22:34;6.60;;;3.60;;
78453;SDS011;67750;55.832;49.124;2023-06-04T00:25:03;5.87;;;3.75;;
78453;SDS011;67750;55.832;49.124;2023-06-04T00:27:33;5.90;;;3.90;;
78453;SDS011;67750;55.832;49.124;2023-06-04T00:30:03;6.55;;;3.62;;
78453;SDS011;67750;55.832;49.124;2023-06-04T00:32:34;5.62;;;3.67;;
78453;SDS011;67750;55.832;49.124;2023-06-04T00:35:04;8.73;;;3.95;;
78453;SDS011;67750;55.832;49.124;2023-06-04T00:37:36;7.55;;;3.35;;
78453;SDS011;67750;55.832;49.124;2023-06-04T00:40:06;5.60;;;3.65;;
78453;SDS011;67750;55.832;49.124;2023-06-04T00:42:35;5.80;;;3.33;;
78453;SDS011;67750;55.832;49.124;2023-06-04T00:45:05;4.95;;;3.70;;
78453;SDS011;67750;55.832;49.124;2023-06-04T00:47:36;6.50;;;3.90;;
78453;SDS011;67750;55.832;49.124;2023-06-04T00:50:06;7.85;;;3.95;;
78453;SDS011;67750;55.832;49.124;2023-06-04T00:52:36;6.95;;;3.72;;
78453;SDS011;67750;55.832;49.124;2023-06-04T00:55:06;6.75;;;3.70;;
78453;SDS011;67750;55.832;49.124;2023-06-04T00:57:37;6.72;;;3.70;;
78453;SDS011;67750;55.832;49.124;2023-06-04T01:00:06;8.85;;;3.95;;
78453;SDS011;67750;55.832;49.124;2023-06-04T01:02:37;6.35;;;3.90;;
78453;SDS011;67750;55.832;49.124;2023-06-04T01:07:57;9.25;;;3.83;;
78453;SDS011;67750;55.832;49.124;2023-06-04T01:10:27;7.15;;;3.47;;
78453;SDS011;67750;55.832;49.124;2023-06-04T01:12:56;6.40;;;4.10;;
78453;SDS011;67750;55.832;49.124;2023-06-04T01:15:26;5.87;;;3.77;;
78453;SDS011;67750;55.832;49.124;2023-06-04T01:20:47;9.48;;;4.03;;
78453;SDS011;67750;55.832;49.124;2023-06-04T01:26:09;7.50;;;3.35;;
78453;SDS011;67750;55.832;49.124;2023-06-04T01:28:39;10.55;;;3.98;;
78453;SDS011;67750;55.832;49.124;2023-06-04T01:31:09;5.92;;;3.98;;
78453;SDS011;67750;55.832;49.124;2023-06-04T01:33:40;7.40;;;4.20;;
78453;SDS011;67750;55.832;49.124;2023-06-04T01:36:10;5.40;;;3.80;;
78453;SDS011;67750;55.832;49.124;2023-06-04T01:38:40;5.35;;;3.35;;
78453;SDS011;67750;55.832;49.124;2023-06-04T01:41:09;7.30;;;4.20;;
78453;SDS011;67750;55.832;49.124;2023-06-04T01:43:39;6.83;;;3.98;;
78453;SDS011;67750;55.832;49.124;2023-06-04T01:46:08;5.37;;;3.67;;
78453;SDS011;67750;55.832;49.124;2023-06-04T01:48:38;5.92;;;4.08;;
78453;SDS011;67750;55.832;49.124;2023-06-04T01:51:07;8.13;;;4.00;;
78453;SDS011;67750;55.832;49.124;2023-06-04T01:53:37;5.90;;;3.98;;
78453;SDS011;67750;55.832;49.124;2023-06-04T01:56:07;7.62;;;4.53;;
78453;SDS011;67750;55.832;49.124;2023-06-04T01:58:38;5.78;;;3.47;;
78453;SDS011;67750;55.832;49.124;2023-06-04T02:01:07;6.90;;;4.10;;
78453;SDS011;67750;55.832;49.124;2023-06-04T02:03:37;5.37;;;4.05;;
78453;SDS011;67750;55.832;49.124;2023-06-04T02:06:08;5.80;;;3.92;;
78453;SDS011;67750;55.832;49.124;2023-06-04T02:08:38;5.42;;;3.65;;
78453;SDS011;67750;55.832;49.124;2023-06-04T02:11:08;5.67;;;3.52;;
78453;SDS011;67750;55.832;49.124;2023-06-04T02:13:38;7.08;;;3.90;;
78453;SDS011;67750;55.832;49.124;2023-06-04T02:16:08;6.50;;;3.70;;
78453;SDS011;67750;55.832;49.124;2023-06-04T02:18:38;6.08;;;3.83;;
78453;SDS011;67750;55.832;49.124;2023-06-04T02:21:08;7.05;;;4.00;;
78453;SDS011;67750;55.832;49.124;2023-06-04T02:23:40;6.72;;;4.40;;
78453;SDS011;67750;55.832;49.124;2023-06-04T02:26:09;7.03;;;3.75;;
78453;SDS011;67750;55.832;49.124;2023-06-04T02:28:39;6.65;;;3.58;;
78453;SDS011;67750;55.832;49.124;2023-06-04T02:31:09;6.03;;;3.85;;
78453;SDS011;67750;55.832;49.124;2023-06-04T02:33:38;6.65;;;3.85;;
78453;SDS011;67750;55.832;49.124;2023-06-04T02:36:08;7.70;;;3.83;;
78453;SDS011;67750;55.832;49.124;2023-06-04T02:38:38;6.78;;;3.55;;
78453;SDS011;67750;55.832;49.124;2023-06-04T02:41:07;6.28;;;3.60;;
78453;SDS011;67750;55.832;49.124;2023-06-04T02:43:37;8.23;;;4.20;;
78453;SDS011;67750;55.832;49.124;2023-06-04T02:46:06;7.67;;;4.05;;
78453;SDS011;67750;55.832;49.124;2023-06-04T02:48:36;5.97;;;3.72;;
78453;SDS011;67750;55.832;49.124;2023-06-04T02:51:05;5.95;;;3.90;;
78453;SDS011;67750;55.832;49.124;2023-06-04T02:53:37;7.62;;;3.98;;
78453;SDS011;67750;55.832;49.124;2023-06-04T02:56:06;6.75;;;3.85;;
78453;SDS011;67750;55.832;49.124;2023-06-04T02:58:36;11.22;;;4.70;;
78453;SDS011;67750;55.832;49.124;2023-06-04T03:01:06;9.23;;;4.37;;
78453;SDS011;67750;55.832;49.124;2023-06-04T03:03:37;6.12;;;4.03;;
78453;SDS011;67750;55.832;49.124;2023-06-04T03:06:08;7.15;;;4.25;;
78453;SDS011;67750;55.832;49.124;2023-06-04T03:08:40;6.28;;;3.98;;
78453;SDS011;67750;55.832;49.124;2023-06-04T03:11:09;5.55;;;3.95;;
78453;SDS011;67750;55.832;49.124;2023-06-04T03:13:39;5.65;;;3.75;;
78453;SDS011;67750;55.832;49.124;2023-06-04T03:16:08;7.33;;;4.03;;
78453;SDS011;67750;55.832;49.124;2023-06-04T03:19:09;8.75;;;3.87;;
78453;SDS011;67750;55.832;49.124;2023-06-04T03:21:09;9.95;;;4.20;;
78453;SDS011;67750;55.832;49.124;2023-06-04T03:23:40;6.72;;;4.00;;
78453;SDS011;67750;55.832;49.124;2023-06-04T03:26:10;7.25;;;4.28;;
78453;SDS011;67750;55.832;49.124;2023-06-04T03:28:40;7.30;;;4.37;;
78453;SDS011;67750;55.832;49.124;2023-06-04T03:31:12;8.20;;;4.47;;
78453;SDS011;67750;55.832;49.124;2023-06-04T03:33:42;8.30;;;3.72;;
78453;SDS011;67750;55.832;49.124;2023-06-04T03:36:11;7.60;;;3.77;;
78453;SDS011;67750;55.832;49.124;2023-06-04T03:38:45;8.10;;;3.87;;
78453;SDS011;67750;55.832;49.124;2023-06-04T03:41:14;7.78;;;4.25;;
78453;SDS011;67750;55.832;49.124;2023-06-04T03:43:44;6.78;;;4.20;;
78453;SDS011;67750;55.832;49.124;2023-06-04T03:46:13;7.37;;;4.58;;
78453;SDS011;67750;55.832;49.124;2023-06-04T03:48:43;9.58;;;4.15;;
78453;SDS011;67750;55.832;49.124;2023-06-04T03:51:13;7.33;;;4.00;;
78453;SDS011;67750;55.832;49.124;2023-06-04T03:56:12;9.53;;;4.42;;
78453;SDS011;67750;55.832;49.124;2023-06-04T03:58:42;6.78;;;4.10;;
78453;SDS011;67750;55.832;49.124;2023-06-04T04:01:12;8.63;;;4.50;;
78453;SDS011;67750;55.832;49.124;2023-06-04T04:03:41;6.78;;;4.10;;
78453;SDS011;67750;55.832;49.124;2023-06-04T04:06:13;8.15;;;4.15;;
78453;SDS011;67750;55.832;49.124;2023-06-04T04:08:43;8.73;;;4.20;;
78453;SDS011;67750;55.832;49.124;2023-06-04T04:11:13;7.28;;;3.80;;
78453;SDS011;67750;55.832;49.124;2023-06-04T04:16:33;6.85;;;3.95;;
78453;SDS011;67750;55.832;49.124;2023-06-04T04:19:04;7.47;;;4.10;;
78453;SDS011;67750;55.832;49.124;2023-06-04T04:21:35;8.08;;;4.15;;
78453;SDS011;67750;55.832;49.124;2023-06-04T04:24:05;8.50;;;4.20;;
78453;SDS011;67750;55.832;49.124;2023-06-04T04:26:35;7.45;;;4.70;;
78453;SDS011;67750;55.832;49.124;2023-06-04T04:29:05;8.00;;;4.35;;
78453;SDS011;67750;55.832;49.124;2023-06-04T04:31:35;5.60;;;3.75;;
78453;SDS011;67750;55.832;49.124;2023-06-04T04:34:06;6.00;;;4.05;;
78453;SDS011;67750;55.832;49.124;2023-06-04T04:36:37;6.10;;;3.58;;
78453;SDS011;67750;55.832;49.124;2023-06-04T04:39:07;9.80;;;3.90;;
78453;SDS011;67750;55.832;49.124;2023-06-04T04:41:37;5.70;;;3.60;;
78453;SDS011;67750;55.832;49.124;2023-06-04T04:44:07;6.20;;;3.77;;
78453;SDS011;67750;55.832;49.124;2023-06-04T04:46:36;6.58;;;3.75;;
78453;SDS011;67750;55.832;49.124;2023-06-04T04:49:06;6.12;;;3.92;;
78453;SDS011;67750;55.832;49.124;2023-06-04T04:51:35;6.22;;;3.92;;
78453;SDS011;67750;55.832;49.124;2023-06-04T04:54:05;7.25;;;3.95;;
78453;SDS011;67750;55.832;49.124;2023-06-04T04:56:35;6.53;;;4.03;;
78453;SDS011;67750;55.832;49.124;2023-06-04T04:59:05;8.70;;;4.28;;
78453;SDS011;67750;55.832;49.124;2023-06-04T05:01:35;8.98;;;3.92;;
78453;SDS011;67750;55.832;49.124;2023-06-04T05:04:05;8.65;;;3.98;;
78453;SDS011;67750;55.832;49.124;2023-06-04T05:06:34;6.08;;;4.10;;
78453;SDS011;67750;55.832;49.124;2023-06-04T05:09:04;10.05;;;4.47;;
78453;SDS011;67750;55.832;49.124;2023-06-04T05:11:34;9.58;;;4.72;;
78453;SDS011;67750;55.832;49.124;2023-06-04T05:14:04;8.55;;;4.17;;
78453;SDS011;67750;55.832;49.124;2023-06-04T05:16:34;11.60;;;4.35;;
78453;SDS011;67750;55.832;49.124;2023-06-04T05:19:05;9.48;;;4.60;;
78453;SDS011;67750;55.832;49.124;2023-06-04T05:24:05;16.52;;;4.22;;
78453;SDS011;67750;55.832;49.124;2023-06-04T05:26:36;9.88;;;5.05;;
78453;SDS011;67750;55.832;49.124;2023-06-04T05:29:08;9.28;;;4.60;;
78453;SDS011;67750;55.832;49.124;2023-06-04T05:31:39;6.42;;;4.15;;
78453;SDS011;67750;55.832;49.124;2023-06-04T05:34:10;8.33;;;4.47;;
78453;SDS011;67750;55.832;49.124;2023-06-04T05:36:41;6.95;;;4.40;;
78453;SDS011;67750;55.832;49.124;2023-06-04T05:39:11;6.00;;;4.28;;
78453;SDS011;67750;55.832;49.124;2023-06-04T05:42:01;9.78;;;5.03;;
78453;SDS011;67750;55.832;49.124;2023-06-04T05:44:31;9.73;;;4.33;;
78453;SDS011;67750;55.832;49.124;2023-06-04T05:47:00;8.45;;;4.30;;
78453;SDS011;67750;55.832;49.124;2023-06-04T05:49:30;10.60;;;4.70;;
78453;SDS011;67750;55.832;49.124;2023-06-04T05:52:00;10.88;;;5.12;;
78453;SDS011;67750;55.832;49.124;2023-06-04T05:54:30;9.30;;;5.28;;
78453;SDS011;67750;55.832;49.124;2023-06-04T05:57:00;8.88;;;4.78;;
78453;SDS011;67750;55.832;49.124;2023-06-04T05:59:29;16.15;;;5.03;;
78453;SDS011;67750;55.832;49.124;2023-06-04T06:01:59;11.93;;;4.78;;
78453;SDS011;67750;55.832;49.124;2023-06-04T06:04:29;7.80;;;4.87;;
78453;SDS011;67750;55.832;49.124;2023-06-04T06:06:59;7.05;;;4.20;;
78453;SDS011;67750;55.832;49.124;2023-06-04T06:09:28;10.03;;;3.90;;
78453;SDS011;67750;55.832;49.124;2023-06-04T06:11:58;13.53;;;4.15;;
78453;SDS011;67750;55.832;49.124;2023-06-04T06:14:27;8.98;;;4.20;;
78453;SDS011;67750;55.832;49.124;2023-06-04T06:16:58;9.78;;;4.08;;
78453;SDS011;67750;55.832;49.124;2023-06-04T06:19:30;8.63;;;3.55;;
78453;SDS011;67750;55.832;49.124;2023-06-04T06:21:59;7.62;;;3.67;;
78453;SDS011;67750;55.832;49.124;2023-06-04T06:24:30;7.42;;;3.62;;
78453;SDS011;67750;55.832;49.124;2023-06-04T06:26:59;7.58;;;3.62;;
78453;SDS011;67750;55.832;49.124;2023-06-04T06:29:29;5.80;;;3.45;;
78453;SDS011;67750;55.832;49.124;2023-06-04T06:31:59;9.58;;;4.00;;
78453;SDS011;67750;55.832;49.124;2023-06-04T06:34:28;7.05;;;3.70;;
78453;SDS011;67750;55.832;49.124;2023-06-04T06:36:58;6.83;;;3.62;;
78453;SDS011;67750;55.832;49.124;2023-06-04T06:39:27;9.08;;;3.58;;
78453;SDS011;67750;55.832;49.124;2023-06-04T06:41:57;9.30;;;3.90;;
78453;SDS011;67750;55.832;49.124;2023-06-04T06:44:28;9.10;;;4.25;;
78453;SDS011;67750;55.832;49.124;2023-06-04T06:46:58;8.48;;;3.52;;
78453;SDS011;67750;55.832;49.124;2023-06-04T06:49:27;5.10;;;3.60;;
78453;SDS011;67750;55.832;49.124;2023-06-04T06:51:57;10.45;;;3.62;;
78453;SDS011;67750;55.832;49.124;2023-06-04T06:54:26;7.83;;;3.72;;
78453;SDS011;67750;55.832;49.124;2023-06-04T06:56:56;5.75;;;3.77;;
78453;SDS011;67750;55.832;49.124;2023-06-04T06:59:25;9.10;;;3.67;;
78453;SDS011;67750;55.832;49.124;2023-06-04T07:01:55;7.50;;;3.30;;
78453;SDS011;67750;55.832;49.124;2023-06-04T07:04:24;9.83;;;3.47;;
78453;SDS011;67750;55.832;49.124;2023-06-04T07:06:54;5.60;;;3.75;;
78453;SDS011;67750;55.832;49.124;2023-06-04T07:09:23;6.97;;;3.58;;
78453;SDS011;67750;55.832;49.124;2023-06-04T07:11:53;5.75;;;3.42;;
78453;SDS011;67750;55.832;49.124;2023-06-04T07:14:22;7.53;;;4.00;;
78453;SDS011;67750;55.832;49.124;2023-06-04T07:16:52;7.65;;;4.30;;
78453;SDS011;67750;55.832;49.124;2023-06-04T07:19:22;7.65;;;4.47;;
78453;SDS011;67750;55.832;49.124;2023-06-04T07:21:53;6.25;;;3.58;;
78453;SDS011;67750;55.832;49.124;2023-06-04T07:24:23;7.40;;;3.67;;
78453;SDS011;67750;55.832;49.124;2023-06-04T07:26:52;6.35;;;3.62;;
78453;SDS011;67750;55.832;49.124;2023-06-04T07:29:22;6.85;;;3.90;;
78453;SDS011;67750;55.832;49.124;2023-06-04T07:31:51;8.75;;;4.05;;
78453;SDS011;67750;55.832;49.124;2023-06-04T07:34:21;7.92;;;4.10;;
78453;SDS011;67750;55.832;49.124;2023-06-04T07:36:50;9.25;;;4.35;;
78453;SDS011;67750;55.832;49.124;2023-06-04T07:39:20;6.75;;;4.12;;
78453;SDS011;67750;55.832;49.124;2023-06-04T07:41:50;10.25;;;4.10;;
78453;SDS011;67750;55.832;49.124;2023-06-04T07:44:21;8.10;;;3.37;;
78453;SDS011;67750;55.832;49.124;2023-06-04T07:46:50;8.55;;;3.27;;
78453;SDS011;67750;55.832;49.124;2023-06-04T07:49:20;6.05;;;2.58;;
78453;SDS011;67750;55.832;49.124;2023-06-04T07:51:49;7.97;;;2.22;;
78453;SDS011;67750;55.832;49.124;2023-06-04T07:54:19;6.47;;;2.12;;
78453;SDS011;67750;55.832;49.124;2023-06-04T07:56:49;4.75;;;2.50;;
78453;SDS011;67750;55.832;49.124;2023-06-04T07:59:20;2.65;;;1.60;;
78453;SDS011;67750;55.832;49.124;2023-06-04T08:01:50;2.85;;;1.60;;
78453;SDS011;67750;55.832;49.124;2023-06-04T08:04:20;2.65;;;1.70;;
78453;SDS011;67750;55.832;49.124;2023-06-04T08:06:49;3.83;;;1.50;;
78453;SDS011;67750;55.832;49.124;2023-06-04T08:09:19;2.77;;;1.55;;
78453;SDS011;67750;55.832;49.124;2023-06-04T08:11:48;5.42;;;1.62;;
78453;SDS011;67750;55.832;49.124;2023-06-04T08:14:18;5.28;;;1.60;;
78453;SDS011;67750;55.832;49.124;2023-06-04T08:19:19;2.67;;;1.22;;
78453;SDS011;67750;55.832;49.124;2023-06-04T08:21:50;3.25;;;1.00;;
78453;SDS011;67750;55.832;49.124;2023-06-04T08:24:22;1.90;;;1.00;;
78453;SDS011;67750;55.832;49.124;2023-06-04T08:26:53;2.20;;;1.20;;
78453;SDS011;67750;55.832;49.124;2023-06-04T08:29:25;4.53;;;1.17;;
78453;SDS011;67750;55.832;49.124;2023-06-04T08:31:56;2.12;;;1.20;;
78453;SDS011;67750;55.832;49.124;2023-06-04T08:34:27;1.95;;;0.90;;
78453;SDS011;67750;55.832;49.124;2023-06-04T08:36:58;2.62;;;1.00;;
78453;SDS011;67750;55.832;49.124;2023-06-04T08:39:27;2.65;;;1.00;;
78453;SDS011;67750;55.832;49.124;2023-06-04T08:41:59;2.00;;;1.10;;
78453;SDS011;67750;55.832;49.124;2023-06-04T08:44:29;3.00;;;1.15;;
78453;SDS011;67750;55.832;49.124;2023-06-04T08:47:33;1.87;;;1.25;;
78453;SDS011;67750;55.832;49.124;2023-06-04T08:49:32;2.27;;;1.17;;
78453;SDS011;67750;55.832;49.124;2023-06-04T08:52:02;3.87;;;1.37;;
78453;SDS011;67750;55.832;49.124;2023-06-04T08:54:33;2.42;;;1.20;;
78453;SDS011;67750;55.832;49.124;2023-06-04T08:57:02;2.15;;;1.20;;
78453;SDS011;67750;55.832;49.124;2023-06-04T08:59:32;3.12;;;1.40;;
78453;SDS011;67750;55.832;49.124;2023-06-04T09:02:02;4.15;;;1.07;;
78453;SDS011;67750;55.832;49.124;2023-06-04T09:04:32;2.70;;;1.10;;
78453;SDS011;67750;55.832;49.124;2023-06-04T09:07:02;2.37;;;1.32;;
78453;SDS011;67750;55.832;49.124;2023-06-04T09:09:33;2.58;;;1.10;;
78453;SDS011;67750;55.832;49.124;2023-06-04T09:12:03;3.42;;;1.40;;
78453;SDS011;67750;55.832;49.124;2023-06-04T09:14:34;3.30;;;1.70;;
78453;SDS011;67750;55.832;49.124;2023-06-04T09:17:04;2.50;;;1.30;;
78453;SDS011;67750;55.832;49.124;2023-06-04T09:19:33;2.77;;;1.12;;
78453;SDS011;67750;55.832;49.124;2023-06-04T09:22:03;4.92;;;1.40;;
78453;SDS011;67750;55.832;49.124;2023-06-04T09:27:23;3.22;;;1.10;;
78453;SDS011;67750;55.832;49.124;2023-06-04T09:32:43;2.02;;;1.10;;
78453;SDS011;67750;55.832;49.124;2023-06-04T09:38:04;2.92;;;1.10;;
78453;SDS011;67750;55.832;49.124;2023-06-04T09:40:35;3.55;;;1.17;;
78453;SDS011;67750;55.832;49.124;2023-06-04T09:43:04;3.72;;;1.20;;
78453;SDS011;67750;55.832;49.124;2023-06-04T09:45:35;2.77;;;0.82;;
78453;SDS011;67750;55.832;49.124;2023-06-04T09:48:04;1.60;;;1.15;;
78453;SDS011;67750;55.832;49.124;2023-06-04T09:50:35;1.70;;;1.05;;
78453;SDS011;67750;55.832;49.124;2023-06-04T09:55:56;2.90;;;1.10;;
78453;SDS011;67750;55.832;49.124;2023-06-04T09:58:26;2.17;;;1.17;;
78453;SDS011;67750;55.832;49.124;2023-06-04T10:00:57;2.70;;;0.85;;
78453;SDS011;67750;55.832;49.124;2023-06-04T10:06:16;1.70;;;0.85;;
78453;SDS011;67750;55.832;49.124;2023-06-04T10:08:46;2.00;;;1.05;;
78453;SDS011;67750;55.832;49.124;2023-06-04T10:11:19;2.47;;;0.95;;
78453;SDS011;67750;55.832;49.124;2023-06-04T10:16:20;2.87;;;1.20;;
78453;SDS011;67750;55.832;49.124;2023-06-04T10:18:52;2.22;;;0.90;;
78453;SDS011;67750;55.832;49.124;2023-06-04T10:21:22;3.37;;;0.70;;
78453;SDS011;67750;55.832;49.124;2023-06-04T10:23:52;3.20;;;1.00;;
78453;SDS011;67750;55.832;49.124;2023-06-04T10:26:21;3.45;;;0.80;;
78453;SDS011;67750;55.832;49.124;2023-06-04T10:28:51;3.30;;;0.90;;
78453;SDS011;67750;55.832;49.124;2023-06-04T10:31:22;2.42;;;0.75;;
78453;SDS011;67750;55.832;49.124;2023-06-04T10:36:42;2.52;;;0.90;;
78453;SDS011;67750;55.832;49.124;2023-06-04T10:39:12;3.37;;;1.00;;
78453;SDS011;67750;55.832;49.124;2023-06-04T10:41:42;1.52;;;0.90;;
78453;SDS011;67750;55.832;49.124;2023-06-04T10:44:13;4.25;;;1.00;;
78453;SDS011;67750;55.832;49.124;2023-06-04T10:46:43;1.60;;;0.82;;
78453;SDS011;67750;55.832;49.124;2023-06-04T10:49:13;2.47;;;0.80;;
78453;SDS011;67750;55.832;49.124;2023-06-04T10:51:42;1.60;;;0.80;;
78453;SDS011;67750;55.832;49.124;2023-06-04T10:54:21;3.52;;;0.85;;
78453;SDS011;67750;55.832;49.124;2023-06-04T10:56:43;3.55;;;0.82;;
78453;SDS011;67750;55.832;49.124;2023-06-04T10:59:13;1.10;;;0.60;;
78453;SDS011;67750;55.832;49.124;2023-06-04T11:01:43;2.72;;;0.90;;
78453;SDS011;67750;55.832;49.124;2023-06-04T11:07:04;1.98;;;0.78;;
78453;SDS011;67750;55.832;49.124;2023-06-04T11:09:54;2.50;;;0.90;;
78453;SDS011;67750;55.832;49.124;2023-06-04T11:12:24;2.55;;;0.80;;
78453;SDS011;67750;55.832;49.124;2023-06-04T11:14:54;1.40;;;0.80;;
78453;SDS011;67750;55.832;49.124;2023-06-04T11:17:24;1.72;;;0.90;;
78453;SDS011;67750;55.832;49.124;2023-06-04T11:19:54;2.70;;;0.80;;
78453;SDS011;67750;55.832;49.124;2023-06-04T11:22:23;1.67;;;0.90;;
78453;SDS011;67750;55.832;49.124;2023-06-04T11:27:42;2.10;;;1.20;;
78453;SDS011;67750;55.832;49.124;2023-06-04T11:30:12;2.45;;;1.17;;
78453;SDS011;67750;55.832;49.124;2023-06-04T11:32:42;2.17;;;1.20;;
78453;SDS011;67750;55.832;49.124;2023-06-04T11:35:11;2.72;;;1.10;;
78453;SDS011;67750;55.832;49.124;2023-06-04T11:37:41;2.65;;;1.30;;
78453;SDS011;67750;55.832;49.124;2023-06-04T11:43:01;4.83;;;1.57;;
78453;SDS011;67750;55.832;49.124;2023-06-04T11:45:31;3.15;;;1.70;;
78453;SDS011;67750;55.832;49.124;2023-06-04T11:48:01;2.90;;;1.17;;
78453;SDS011;67750;55.832;49.124;2023-06-04T11:50:31;2.77;;;1.20;;
78453;SDS011;67750;55.832;49.124;2023-06-04T11:53:01;1.75;;;0.80;;
78453;SDS011;67750;55.832;49.124;2023-06-04T11:55:31;3.42;;;1.00;;
78453;SDS011;67750;55.832;49.124;2023-06-04T11:58:00;1.72;;;0.88;;
78453;SDS011;67750;55.832;49.124;2023-06-04T12:00:31;3.70;;;1.10;;
78453;SDS011;67750;55.832;49.124;2023-06-04T12:03:00;2.30;;;1.40;;
78453;SDS011;67750;55.832;49.124;2023-06-04T12:05:30;2.77;;;1.57;;
78453;SDS011;67750;55.832;49.124;2023-06-04T12:10:50;2.15;;;1.10;;
78453;SDS011;67750;55.832;49.124;2023-06-04T12:13:19;2.17;;;0.95;;
78453;SDS011;67750;55.832;49.124;2023-06-04T12:18:38;4.08;;;1.30;;
78453;SDS011;67750;55.832;49.124;2023-06-04T12:21:39;1.70;;;1.00;;
78453;SDS011;67750;55.832;49.124;2023-06-04T12:23:39;2.30;;;1.20;;
78453;SDS011;67750;55.832;49.124;2023-06-04T12:26:10;2.37;;;1.15;;
78453;SDS011;67750;55.832;49.124;2023-06-04T12:28:40;1.70;;;1.10;;
78453;SDS011;67750;55.832;49.124;2023-06-04T12:33:59;2.50;;;1.20;;
78453;SDS011;67750;55.832;49.124;2023-06-04T12:36:28;2.10;;;0.90;;
78453;SDS011;67750;55.832;49.124;2023-06-04T12:39:00;4.15;;;1.00;;
78453;SDS011;67750;55.832;49.124;2023-06-04T12:41:30;4.47;;;1.20;;
78453;SDS011;67750;55.832;49.124;2023-06-04T12:44:01;2.60;;;1.00;;
78453;SDS011;67750;55.832;49.124;2023-06-04T12:46:31;3.08;;;1.10;;
78453;SDS011;67750;55.832;49.124;2023-06-04T12:49:00;1.92;;;1.00;;
78453;SDS011;67750;55.832;49.124;2023-06-04T12:51:30;3.12;;;1.02;;
78453;SDS011;67750;55.832;49.124;2023-06-04T12:53:59;1.60;;;0.98;;
78453;SDS011;67750;55.832;49.124;2023-06-04T12:56:29;7.92;;;1.47;;
78453;SDS011;67750;55.832;49.124;2023-06-04T12:58:58;1.95;;;0.80;;
78453;SDS011;67750;55.832;49.124;2023-06-04T13:01:29;2.60;;;1.00;;
78453;SDS011;67750;55.832;49.124;2023-06-04T13:03:58;5.83;;;1.42;;
78453;SDS011;67750;55.832;49.124;2023-06-04T13:06:28;4.03;;;1.40;;
78453;SDS011;67750;55.832;49.124;2023-06-04T13:08:57;1.95;;;1.32;;
78453;SDS011;67750;55.832;49.124;2023-06-04T13:11:27;3.55;;;1.45;;
78453;SDS011;67750;55.832;49.124;2023-06-04T13:13:56;3.33;;;1.50;;
78453;SDS011;67750;55.832;49.124;2023-06-04T13:16:26;4.37;;;1.27;;
78453;SDS011;67750;55.832;49.124;2023-06-04T13:18:55;3.12;;;1.00;;
78453;SDS011;67750;55.832;49.124;2023-06-04T13:21:25;2.67;;;1.50;;
78453;SDS011;67750;55.832;49.124;2023-06-04T13:23:55;2.37;;;1.45;;
78453;SDS011;67750;55.832;49.124;2023-06-04T13:26:27;2.90;;;1.37;;
78453;SDS011;67750;55.832;49.124;2023-06-04T13:28:56;7.22;;;1.25;;
78453;SDS011;67750;55.832;49.124;2023-06-04T13:31:26;2.72;;;1.10;;
78453;SDS011;67750;55.832;49.124;2023-06-04T13:33:55;3.45;;;1.10;;
78453;SDS011;67750;55.832;49.124;2023-06-04T13:36:25;3.87;;;1.20;;
78453;SDS011;67750;55.832;49.124;2023-06-04T13:38:54;5.05;;;1.40;;
78453;SDS011;67750;55.832;49.124;2023-06-04T13:41:24;2.98;;;1.20;;
78453;SDS011;67750;55.832;49.124;2023-06-04T13:43:53;3.77;;;1.47;;
78453;SDS011;67750;55.832;49.124;2023-06-04T13:46:23;3.62;;;1.10;;
78453;SDS011;67750;55.832;49.124;2023-06-04T13:48:52;2.08;;;1.00;;
78453;SDS011;67750;55.832;49.124;2023-06-04T13:51:22;1.55;;;0.80;;
78453;SDS011;67750;55.832;49.124;2023-06-04T13:53:51;4.95;;;1.75;;
78453;SDS011;67750;55.832;49.124;2023-06-04T13:56:21;2.42;;;0.95;;
78453;SDS011;67750;55.832;49.124;2023-06-04T13:58:52;2.30;;;1.22;;
78453;SDS011;67750;55.832;49.124;2023-06-04T14:01:21;3.45;;;1.32;;
78453;SDS011;67750;55.832;49.124;2023-06-04T14:03:51;3.02;;;0.90;;
78453;SDS011;67750;55.832;49.124;2023-06-04T14:06:20;2.65;;;0.90;;
78453;SDS011;67750;55.832;49.124;2023-06-04T14:08:50;3.75;;;1.20;;
78453;SDS011;67750;55.832;49.124;2023-06-04T14:11:19;2.35;;;1.10;;
78453;SDS011;67750;55.832;49.124;2023-06-04T14:13:49;1.87;;;0.90;;
78453;SDS011;67750;55.832;49.124;2023-06-04T14:16:18;2.98;;;0.98;;
78453;SDS011;67750;55.832;49.124;2023-06-04T14:18:48;2.17;;;1.10;;
78453;SDS011;67750;55.832;49.124;2023-06-04T14:21:17;2.52;;;1.30;;
78453;SDS011;67750;55.832;49.124;2023-06-04T14:23:48;2.50;;;1.50;;
78453;SDS011;67750;55.832;49.124;2023-06-04T14:26:17;3.83;;;1.77;;
78453;SDS011;67750;55.832;49.124;2023-06-04T14:28:47;4.58;;;1.42;;
78453;SDS011;67750;55.832;49.124;2023-06-04T14:31:17;2.87;;;1.20;;
78453;SDS011;67750;55.832;49.124;2023-06-04T14:33:46;6.80;;;1.20;;
78453;SDS011;67750;55.832;49.124;2023-06-04T14:36:16;3.17;;;1.20;;
78453;SDS011;67750;55.832;49.124;2023-06-04T14:38:46;3.60;;;1.32;;
78453;SDS011;67750;55.832;49.124;2023-06-04T14:41:16;2.42;;;1.05;;
78453;SDS011;67750;55.832;49.124;2023-06-04T14:43:45;1.57;;;0.90;;
78453;SDS011;67750;55.832;49.124;2023-06-04T14:46:16;2.77;;;1.32;;
78453;SDS011;67750;55.832;49.124;2023-06-04T14:48:45;2.40;;;1.17;;
78453;SDS011;67750;55.832;49.124;2023-06-04T14:51:15;3.35;;;0.98;;
78453;SDS011;67750;55.832;49.124;2023-06-04T14:53:44;4.25;;;1.05;;
78453;SDS011;67750;55.832;49.124;2023-06-04T14:56:16;1.45;;;0.85;;
78453;SDS011;67750;55.832;49.124;2023-06-04T14:58:46;3.35;;;1.27;;
78453;SDS011;67750;55.832;49.124;2023-06-04T15:01:15;2.72;;;1.10;;
78453;SDS011;67750;55.832;49.124;2023-06-04T15:03:45;4.12;;;1.82;;
78453;SDS011;67750;55.832;49.124;2023-06-04T15:06:15;2.62;;;1.42;;
78453;SDS011;67750;55.832;49.124;2023-06-04T15:08:44;5.55;;;1.40;;
78453;SDS011;67750;55.832;49.124;2023-06-04T15:11:14;3.65;;;1.22;;
78453;SDS011;67750;55.832;49.124;2023-06-04T15:13:44;5.00;;;1.20;;
78453;SDS011;67750;55.832;49.124;2023-06-04T15:16:13;4.35;;;1.10;;
78453;SDS011;67750;55.832;49.124;2023-06-04T15:18:43;3.25;;;1.40;;
78453;SDS011;67750;55.832;49.124;2023-06-04T15:21:12;2.17;;;1.20;;
78453;SDS011;67750;55.832;49.124;2023-06-04T15:23:42;3.83;;;1.70;;
78453;SDS011;67750;55.832;49.124;2023-06-04T15:26:13;2.62;;;1.42;;
78453;SDS011;67750;55.832;49.124;2023-06-04T15:28:43;2.12;;;1.20;;
78453;SDS011;67750;55.832;49.124;2023-06-04T15:31:14;4.42;;;1.75;;
78453;SDS011;67750;55.832;49.124;2023-06-04T15:33:44;4.95;;;1.17;;
78453;SDS011;67750;55.832;49.124;2023-06-04T15:36:13;6.25;;;1.30;;
78453;SDS011;67750;55.832;49.124;2023-06-04T15:38:43;2.40;;;1.12;;
78453;SDS011;67750;55.832;49.124;2023-06-04T15:41:12;3.35;;;1.12;;
78453;SDS011;67750;55.832;49.124;2023-06-04T15:43:42;2.98;;;1.47;;